This is the latest recevied weather packets stored in our database for station/object EA2BJM-15. If no packets are shown the sender has not sent any weather packets the latest 10 day(s).
| Time | Temp. | Humidity | Pressure | Rain* | Wind** | Luminosity | Snow |
|---|---|---|---|---|---|---|---|
| 1787815856 | 27.78° C | 29% | 1011.8 hPa | 0 mm | - | - | - |
| 1787814956 | 26.67° C | 32% | 1011.8 hPa | 0 mm | - | - | - |
| 1787814056 | 25.56° C | 39% | 1011.8 hPa | 0 mm | - | - | - |
| 1787813155 | 24.44° C | 44% | 1010.8 hPa | 0 mm | - | - | - |
| 1787812255 | 23.89° C | 46% | 1010.8 hPa | 0 mm | - | - | - |
| 1787811355 | 23.89° C | 48% | 1010.8 hPa | 0 mm | - | - | - |
| 1787810455 | 23.33° C | 52% | 1010.8 hPa | 0 mm | - | - | - |
| 1787809556 | 23.33° C | 51% | 1010.8 hPa | 0 mm | - | - | - |
| 1787808656 | 23.33° C | 51% | 1010.8 hPa | 0 mm | - | - | - |
| 1787807756 | 23.33° C | 50% | 1009.8 hPa | 0 mm | - | - | - |
| 1787806855 | 23.33° C | 48% | 1009.8 hPa | 0 mm | - | - | - |
| 1787805955 | 23.89° C | 49% | 1009.8 hPa | 0 mm | - | - | - |
| 1787805056 | 23.89° C | 51% | 1009.8 hPa | 0 mm | - | - | - |
| 1787804155 | 23.89° C | 50% | 1009.8 hPa | 0 mm | - | - | - |
| 1787803255 | 23.89° C | 49% | 1009.8 hPa | 0 mm | - | - | - |
| 1787802356 | 23.89° C | 50% | 1009.8 hPa | 0 mm | - | - | - |
| 1787801455 | 23.89° C | 49% | 1009.8 hPa | 0 mm | - | - | - |
| 1787800557 | 24.44° C | 48% | 1009.8 hPa | 0 mm | - | - | - |
| 1787799657 | 24.44° C | 46% | 1009.8 hPa | 0 mm | - | - | - |
| 1787798756 | 24.44° C | 47% | 1009.8 hPa | 0 mm | - | - | - |
| 1787797856 | 25° C | 48% | 1009.8 hPa | 0 mm | - | - | - |
| 1787796955 | 25° C | 46% | 1009.8 hPa | 0 mm | - | - | - |
| 1787796055 | 25° C | 46% | 1009.8 hPa | 0 mm | - | - | - |
| 1787795155 | 25.56° C | 45% | 1009.8 hPa | 0 mm | - | - | - |
| 1787794257 | 25.56° C | 45% | 1009.8 hPa | 0 mm | - | - | - |
* Rain latest hour (hover to see other rain measurements)
** Current wind speed in m/s (hover to see current wind gust speed)